sensor_id;sensor_type;location;lat;lon;timestamp;P1;durP1;ratioP1;P2;durP2;ratioP2
51949;SDS011;37974;53.218;6.640;2023-04-06T00:01:01;15.32;;;10.00;;
51949;SDS011;37974;53.218;6.640;2023-04-06T00:03:27;12.02;;;9.32;;
51949;SDS011;37974;53.218;6.640;2023-04-06T00:05:53;14.23;;;9.75;;
51949;SDS011;37974;53.218;6.640;2023-04-06T00:08:18;15.32;;;9.40;;
51949;SDS011;37974;53.218;6.640;2023-04-06T00:10:46;13.73;;;9.88;;
51949;SDS011;37974;53.218;6.640;2023-04-06T00:13:12;13.13;;;9.85;;
51949;SDS011;37974;53.218;6.640;2023-04-06T00:15:38;13.35;;;9.73;;
51949;SDS011;37974;53.218;6.640;2023-04-06T00:18:03;13.73;;;9.25;;
51949;SDS011;37974;53.218;6.640;2023-04-06T00:20:29;14.70;;;9.73;;
51949;SDS011;37974;53.218;6.640;2023-04-06T00:22:55;16.08;;;9.82;;
51949;SDS011;37974;53.218;6.640;2023-04-06T00:25:22;15.93;;;9.13;;
51949;SDS011;37974;53.218;6.640;2023-04-06T00:27:47;15.32;;;9.60;;
51949;SDS011;37974;53.218;6.640;2023-04-06T00:30:13;15.82;;;9.95;;
51949;SDS011;37974;53.218;6.640;2023-04-06T00:32:39;14.90;;;10.25;;
51949;SDS011;37974;53.218;6.640;2023-04-06T00:35:05;14.50;;;10.27;;
51949;SDS011;37974;53.218;6.640;2023-04-06T00:37:31;15.63;;;10.70;;
51949;SDS011;37974;53.218;6.640;2023-04-06T00:39:57;15.05;;;10.02;;
51949;SDS011;37974;53.218;6.640;2023-04-06T00:42:23;15.63;;;10.90;;
51949;SDS011;37974;53.218;6.640;2023-04-06T00:44:52;16.67;;;10.88;;
51949;SDS011;37974;53.218;6.640;2023-04-06T00:47:19;14.55;;;10.27;;
51949;SDS011;37974;53.218;6.640;2023-04-06T00:49:46;17.58;;;10.50;;
51949;SDS011;37974;53.218;6.640;2023-04-06T00:52:12;13.25;;;10.18;;
51949;SDS011;37974;53.218;6.640;2023-04-06T00:54:38;16.98;;;11.32;;
51949;SDS011;37974;53.218;6.640;2023-04-06T00:57:03;15.00;;;10.13;;
51949;SDS011;37974;53.218;6.640;2023-04-06T00:59:29;15.98;;;10.35;;
51949;SDS011;37974;53.218;6.640;2023-04-06T01:01:55;16.10;;;10.05;;
51949;SDS011;37974;53.218;6.640;2023-04-06T01:04:21;15.63;;;10.18;;
51949;SDS011;37974;53.218;6.640;2023-04-06T01:06:48;16.40;;;10.45;;
51949;SDS011;37974;53.218;6.640;2023-04-06T01:09:15;17.60;;;11.98;;
51949;SDS011;37974;53.218;6.640;2023-04-06T01:11:41;19.58;;;11.55;;
51949;SDS011;37974;53.218;6.640;2023-04-06T01:14:07;17.65;;;11.48;;
51949;SDS011;37974;53.218;6.640;2023-04-06T01:16:33;16.75;;;11.82;;
51949;SDS011;37974;53.218;6.640;2023-04-06T01:18:59;19.85;;;11.75;;
51949;SDS011;37974;53.218;6.640;2023-04-06T01:21:25;15.40;;;11.20;;
51949;SDS011;37974;53.218;6.640;2023-04-06T01:23:51;15.50;;;10.68;;
51949;SDS011;37974;53.218;6.640;2023-04-06T01:26:17;15.48;;;11.70;;
51949;SDS011;37974;53.218;6.640;2023-04-06T01:28:42;17.67;;;11.15;;
51949;SDS011;37974;53.218;6.640;2023-04-06T01:31:09;23.20;;;11.75;;
51949;SDS011;37974;53.218;6.640;2023-04-06T01:33:35;16.30;;;11.60;;
51949;SDS011;37974;53.218;6.640;2023-04-06T01:36:02;14.05;;;11.40;;
51949;SDS011;37974;53.218;6.640;2023-04-06T01:38:28;17.73;;;11.30;;
51949;SDS011;37974;53.218;6.640;2023-04-06T01:40:54;17.85;;;10.60;;
51949;SDS011;37974;53.218;6.640;2023-04-06T01:43:20;17.40;;;12.52;;
51949;SDS011;37974;53.218;6.640;2023-04-06T01:45:46;19.17;;;12.13;;
51949;SDS011;37974;53.218;6.640;2023-04-06T01:48:11;18.00;;;11.68;;
51949;SDS011;37974;53.218;6.640;2023-04-06T01:50:37;20.02;;;11.82;;
51949;SDS011;37974;53.218;6.640;2023-04-06T01:53:03;19.40;;;12.63;;
51949;SDS011;37974;53.218;6.640;2023-04-06T01:55:28;18.55;;;12.45;;
51949;SDS011;37974;53.218;6.640;2023-04-06T01:57:54;15.85;;;11.57;;
51949;SDS011;37974;53.218;6.640;2023-04-06T02:00:20;16.83;;;11.80;;
51949;SDS011;37974;53.218;6.640;2023-04-06T02:02:46;20.08;;;11.57;;
51949;SDS011;37974;53.218;6.640;2023-04-06T02:05:11;18.70;;;11.52;;
51949;SDS011;37974;53.218;6.640;2023-04-06T02:07:37;19.88;;;12.18;;
51949;SDS011;37974;53.218;6.640;2023-04-06T02:10:03;16.75;;;11.88;;
51949;SDS011;37974;53.218;6.640;2023-04-06T02:12:29;14.18;;;11.35;;
51949;SDS011;37974;53.218;6.640;2023-04-06T02:14:54;16.30;;;11.68;;
51949;SDS011;37974;53.218;6.640;2023-04-06T02:17:20;18.10;;;11.55;;
51949;SDS011;37974;53.218;6.640;2023-04-06T02:19:46;17.48;;;11.73;;
51949;SDS011;37974;53.218;6.640;2023-04-06T02:22:11;18.33;;;12.70;;
51949;SDS011;37974;53.218;6.640;2023-04-06T02:24:37;17.73;;;12.07;;
51949;SDS011;37974;53.218;6.640;2023-04-06T02:27:03;18.63;;;11.70;;
51949;SDS011;37974;53.218;6.640;2023-04-06T02:29:28;17.50;;;12.38;;
51949;SDS011;37974;53.218;6.640;2023-04-06T02:31:54;17.13;;;11.32;;
51949;SDS011;37974;53.218;6.640;2023-04-06T02:34:20;17.58;;;11.98;;
51949;SDS011;37974;53.218;6.640;2023-04-06T02:36:46;15.55;;;11.35;;
51949;SDS011;37974;53.218;6.640;2023-04-06T02:39:12;17.52;;;11.88;;
51949;SDS011;37974;53.218;6.640;2023-04-06T02:41:39;20.20;;;11.82;;
51949;SDS011;37974;53.218;6.640;2023-04-06T02:44:07;16.55;;;11.63;;
51949;SDS011;37974;53.218;6.640;2023-04-06T02:46:33;16.15;;;12.20;;
51949;SDS011;37974;53.218;6.640;2023-04-06T02:48:59;20.38;;;13.35;;
51949;SDS011;37974;53.218;6.640;2023-04-06T02:51:25;15.98;;;11.50;;
51949;SDS011;37974;53.218;6.640;2023-04-06T02:53:51;16.95;;;12.23;;
51949;SDS011;37974;53.218;6.640;2023-04-06T02:56:17;20.27;;;12.40;;
51949;SDS011;37974;53.218;6.640;2023-04-06T02:58:43;20.58;;;12.32;;
51949;SDS011;37974;53.218;6.640;2023-04-06T03:01:09;18.80;;;11.85;;
51949;SDS011;37974;53.218;6.640;2023-04-06T03:03:35;16.10;;;11.73;;
51949;SDS011;37974;53.218;6.640;2023-04-06T03:06:00;16.63;;;12.20;;
51949;SDS011;37974;53.218;6.640;2023-04-06T03:08:26;17.45;;;12.35;;
51949;SDS011;37974;53.218;6.640;2023-04-06T03:10:52;14.95;;;11.20;;
51949;SDS011;37974;53.218;6.640;2023-04-06T03:13:17;18.48;;;12.10;;
51949;SDS011;37974;53.218;6.640;2023-04-06T03:15:43;19.48;;;12.43;;
51949;SDS011;37974;53.218;6.640;2023-04-06T03:18:09;19.70;;;12.48;;
51949;SDS011;37974;53.218;6.640;2023-04-06T03:20:35;15.70;;;11.90;;
51949;SDS011;37974;53.218;6.640;2023-04-06T03:23:02;17.08;;;12.32;;
51949;SDS011;37974;53.218;6.640;2023-04-06T03:25:27;19.52;;;12.75;;
51949;SDS011;37974;53.218;6.640;2023-04-06T03:27:55;15.07;;;11.18;;
51949;SDS011;37974;53.218;6.640;2023-04-06T03:30:20;19.73;;;12.10;;
51949;SDS011;37974;53.218;6.640;2023-04-06T03:32:46;22.38;;;13.32;;
51949;SDS011;37974;53.218;6.640;2023-04-06T03:35:12;18.65;;;12.45;;
51949;SDS011;37974;53.218;6.640;2023-04-06T03:37:38;17.05;;;12.35;;
51949;SDS011;37974;53.218;6.640;2023-04-06T03:40:03;18.85;;;12.43;;
51949;SDS011;37974;53.218;6.640;2023-04-06T03:42:30;21.08;;;12.82;;
51949;SDS011;37974;53.218;6.640;2023-04-06T03:44:55;18.70;;;12.10;;
51949;SDS011;37974;53.218;6.640;2023-04-06T03:47:21;23.83;;;13.35;;
51949;SDS011;37974;53.218;6.640;2023-04-06T03:49:47;20.40;;;13.05;;
51949;SDS011;37974;53.218;6.640;2023-04-06T03:52:13;19.00;;;12.93;;
51949;SDS011;37974;53.218;6.640;2023-04-06T03:54:38;17.23;;;12.65;;
51949;SDS011;37974;53.218;6.640;2023-04-06T03:57:04;20.50;;;12.52;;
51949;SDS011;37974;53.218;6.640;2023-04-06T03:59:30;19.35;;;12.13;;
51949;SDS011;37974;53.218;6.640;2023-04-06T04:01:56;20.13;;;12.80;;
51949;SDS011;37974;53.218;6.640;2023-04-06T04:04:21;23.58;;;13.57;;
51949;SDS011;37974;53.218;6.640;2023-04-06T04:06:47;23.83;;;13.88;;
51949;SDS011;37974;53.218;6.640;2023-04-06T04:09:13;19.52;;;13.95;;
51949;SDS011;37974;53.218;6.640;2023-04-06T04:11:38;19.25;;;12.57;;
51949;SDS011;37974;53.218;6.640;2023-04-06T04:14:04;18.80;;;12.82;;
51949;SDS011;37974;53.218;6.640;2023-04-06T04:16:30;17.52;;;13.07;;
51949;SDS011;37974;53.218;6.640;2023-04-06T04:18:55;22.20;;;13.20;;
51949;SDS011;37974;53.218;6.640;2023-04-06T04:21:23;19.88;;;12.40;;
51949;SDS011;37974;53.218;6.640;2023-04-06T04:23:48;21.25;;;13.45;;
51949;SDS011;37974;53.218;6.640;2023-04-06T04:26:14;18.63;;;13.38;;
51949;SDS011;37974;53.218;6.640;2023-04-06T04:28:40;18.77;;;12.90;;
51949;SDS011;37974;53.218;6.640;2023-04-06T04:31:06;19.55;;;13.60;;
51949;SDS011;37974;53.218;6.640;2023-04-06T04:33:31;18.35;;;12.57;;
51949;SDS011;37974;53.218;6.640;2023-04-06T04:35:57;25.33;;;13.52;;
51949;SDS011;37974;53.218;6.640;2023-04-06T04:38:23;19.90;;;13.27;;
51949;SDS011;37974;53.218;6.640;2023-04-06T04:40:48;20.38;;;12.63;;
51949;SDS011;37974;53.218;6.640;2023-04-06T04:43:14;20.65;;;12.32;;
51949;SDS011;37974;53.218;6.640;2023-04-06T04:45:40;17.90;;;12.23;;
51949;SDS011;37974;53.218;6.640;2023-04-06T04:48:05;21.15;;;12.40;;
51949;SDS011;37974;53.218;6.640;2023-04-06T04:50:32;20.77;;;12.65;;
51949;SDS011;37974;53.218;6.640;2023-04-06T04:52:58;19.80;;;12.82;;
51949;SDS011;37974;53.218;6.640;2023-04-06T04:55:24;21.95;;;13.50;;
51949;SDS011;37974;53.218;6.640;2023-04-06T04:57:49;17.73;;;12.77;;
51949;SDS011;37974;53.218;6.640;2023-04-06T05:00:15;19.35;;;12.68;;
51949;SDS011;37974;53.218;6.640;2023-04-06T05:02:41;20.60;;;12.38;;
51949;SDS011;37974;53.218;6.640;2023-04-06T05:05:06;21.52;;;11.93;;
51949;SDS011;37974;53.218;6.640;2023-04-06T05:07:33;17.63;;;11.57;;
51949;SDS011;37974;53.218;6.640;2023-04-06T05:09:58;16.25;;;11.52;;
51949;SDS011;37974;53.218;6.640;2023-04-06T05:12:24;19.83;;;11.55;;
51949;SDS011;37974;53.218;6.640;2023-04-06T05:14:52;17.65;;;11.88;;
51949;SDS011;37974;53.218;6.640;2023-04-06T05:17:19;18.25;;;11.70;;
51949;SDS011;37974;53.218;6.640;2023-04-06T05:19:44;19.48;;;11.88;;
51949;SDS011;37974;53.218;6.640;2023-04-06T05:22:10;19.50;;;11.43;;
51949;SDS011;37974;53.218;6.640;2023-04-06T05:24:36;16.67;;;11.35;;
51949;SDS011;37974;53.218;6.640;2023-04-06T05:27:02;18.63;;;10.70;;
51949;SDS011;37974;53.218;6.640;2023-04-06T05:29:28;18.55;;;11.02;;
51949;SDS011;37974;53.218;6.640;2023-04-06T05:31:54;20.95;;;10.32;;
51949;SDS011;37974;53.218;6.640;2023-04-06T05:34:20;18.48;;;11.02;;
51949;SDS011;37974;53.218;6.640;2023-04-06T05:36:46;18.05;;;11.63;;
51949;SDS011;37974;53.218;6.640;2023-04-06T05:39:12;16.27;;;11.13;;
51949;SDS011;37974;53.218;6.640;2023-04-06T05:41:38;15.90;;;10.82;;
51949;SDS011;37974;53.218;6.640;2023-04-06T05:44:03;15.07;;;11.27;;
51949;SDS011;37974;53.218;6.640;2023-04-06T05:46:29;17.05;;;10.93;;
51949;SDS011;37974;53.218;6.640;2023-04-06T05:48:55;21.00;;;11.18;;
51949;SDS011;37974;53.218;6.640;2023-04-06T05:51:21;16.40;;;10.52;;
51949;SDS011;37974;53.218;6.640;2023-04-06T05:53:46;13.50;;;10.27;;
51949;SDS011;37974;53.218;6.640;2023-04-06T05:56:12;20.70;;;10.10;;
51949;SDS011;37974;53.218;6.640;2023-04-06T05:58:38;18.70;;;10.30;;
51949;SDS011;37974;53.218;6.640;2023-04-06T06:01:04;15.48;;;9.93;;
51949;SDS011;37974;53.218;6.640;2023-04-06T06:03:30;17.05;;;10.80;;
51949;SDS011;37974;53.218;6.640;2023-04-06T06:06:00;27.08;;;10.63;;
51949;SDS011;37974;53.218;6.640;2023-04-06T06:08:29;23.88;;;10.73;;
51949;SDS011;37974;53.218;6.640;2023-04-06T06:10:55;19.98;;;10.45;;
51949;SDS011;37974;53.218;6.640;2023-04-06T06:13:22;17.10;;;9.90;;
51949;SDS011;37974;53.218;6.640;2023-04-06T06:15:48;18.90;;;10.77;;
51949;SDS011;37974;53.218;6.640;2023-04-06T06:18:14;20.75;;;10.43;;
51949;SDS011;37974;53.218;6.640;2023-04-06T06:20:40;20.90;;;10.02;;
51949;SDS011;37974;53.218;6.640;2023-04-06T06:23:06;15.57;;;10.45;;
51949;SDS011;37974;53.218;6.640;2023-04-06T06:25:32;13.10;;;9.45;;
51949;SDS011;37974;53.218;6.640;2023-04-06T06:27:58;22.45;;;10.40;;
51949;SDS011;37974;53.218;6.640;2023-04-06T06:30:24;17.77;;;10.57;;
51949;SDS011;37974;53.218;6.640;2023-04-06T06:32:51;27.27;;;10.95;;
51949;SDS011;37974;53.218;6.640;2023-04-06T06:35:17;17.55;;;9.85;;
51949;SDS011;37974;53.218;6.640;2023-04-06T06:37:42;17.60;;;9.98;;
51949;SDS011;37974;53.218;6.640;2023-04-06T06:40:08;14.52;;;9.82;;
51949;SDS011;37974;53.218;6.640;2023-04-06T06:42:35;19.85;;;10.18;;
51949;SDS011;37974;53.218;6.640;2023-04-06T06:45:05;21.15;;;10.57;;
51949;SDS011;37974;53.218;6.640;2023-04-06T06:47:31;14.20;;;9.88;;
51949;SDS011;37974;53.218;6.640;2023-04-06T06:49:57;17.50;;;10.23;;
51949;SDS011;37974;53.218;6.640;2023-04-06T06:52:23;15.93;;;10.00;;
51949;SDS011;37974;53.218;6.640;2023-04-06T06:54:49;17.80;;;10.30;;
51949;SDS011;37974;53.218;6.640;2023-04-06T06:57:14;15.68;;;10.50;;
51949;SDS011;37974;53.218;6.640;2023-04-06T06:59:40;16.35;;;10.02;;
51949;SDS011;37974;53.218;6.640;2023-04-06T07:02:06;14.77;;;10.13;;
51949;SDS011;37974;53.218;6.640;2023-04-06T07:04:32;17.23;;;9.93;;
51949;SDS011;37974;53.218;6.640;2023-04-06T07:07:05;19.02;;;10.05;;
51949;SDS011;37974;53.218;6.640;2023-04-06T07:09:31;22.08;;;9.82;;
51949;SDS011;37974;53.218;6.640;2023-04-06T07:11:57;17.98;;;9.55;;
51949;SDS011;37974;53.218;6.640;2023-04-06T07:14:23;17.00;;;9.90;;
51949;SDS011;37974;53.218;6.640;2023-04-06T07:16:48;18.98;;;9.45;;
51949;SDS011;37974;53.218;6.640;2023-04-06T07:19:15;17.55;;;9.98;;
51949;SDS011;37974;53.218;6.640;2023-04-06T07:21:40;18.10;;;9.93;;
51949;SDS011;37974;53.218;6.640;2023-04-06T07:24:06;13.40;;;9.70;;
51949;SDS011;37974;53.218;6.640;2023-04-06T07:26:32;12.65;;;9.48;;
51949;SDS011;37974;53.218;6.640;2023-04-06T07:28:58;15.82;;;9.82;;
51949;SDS011;37974;53.218;6.640;2023-04-06T07:31:23;17.50;;;10.00;;
51949;SDS011;37974;53.218;6.640;2023-04-06T07:33:49;18.80;;;9.73;;
51949;SDS011;37974;53.218;6.640;2023-04-06T07:36:15;14.90;;;9.82;;
51949;SDS011;37974;53.218;6.640;2023-04-06T07:38:41;14.90;;;9.93;;
51949;SDS011;37974;53.218;6.640;2023-04-06T07:41:06;15.88;;;9.82;;
51949;SDS011;37974;53.218;6.640;2023-04-06T07:43:32;19.45;;;9.75;;
51949;SDS011;37974;53.218;6.640;2023-04-06T07:45:58;16.13;;;10.23;;
51949;SDS011;37974;53.218;6.640;2023-04-06T07:48:25;15.55;;;9.60;;
51949;SDS011;37974;53.218;6.640;2023-04-06T07:50:51;12.55;;;9.30;;
51949;SDS011;37974;53.218;6.640;2023-04-06T07:53:17;19.35;;;9.60;;
51949;SDS011;37974;53.218;6.640;2023-04-06T07:55:42;15.00;;;10.00;;
51949;SDS011;37974;53.218;6.640;2023-04-06T07:58:08;15.48;;;10.20;;
51949;SDS011;37974;53.218;6.640;2023-04-06T08:00:34;19.08;;;9.63;;
51949;SDS011;37974;53.218;6.640;2023-04-06T08:03:00;16.42;;;9.75;;
51949;SDS011;37974;53.218;6.640;2023-04-06T08:05:25;16.60;;;9.23;;
51949;SDS011;37974;53.218;6.640;2023-04-06T08:07:51;22.90;;;8.95;;
51949;SDS011;37974;53.218;6.640;2023-04-06T08:10:17;20.63;;;9.02;;
51949;SDS011;37974;53.218;6.640;2023-04-06T08:12:43;21.73;;;10.13;;
51949;SDS011;37974;53.218;6.640;2023-04-06T08:15:08;14.93;;;8.93;;
51949;SDS011;37974;53.218;6.640;2023-04-06T08:17:35;14.52;;;9.05;;
51949;SDS011;37974;53.218;6.640;2023-04-06T08:20:00;12.43;;;8.23;;
51949;SDS011;37974;53.218;6.640;2023-04-06T08:22:28;15.65;;;9.27;;
51949;SDS011;37974;53.218;6.640;2023-04-06T08:24:54;13.40;;;9.07;;
51949;SDS011;37974;53.218;6.640;2023-04-06T08:27:19;15.57;;;8.93;;
51949;SDS011;37974;53.218;6.640;2023-04-06T08:29:45;13.90;;;8.93;;
51949;SDS011;37974;53.218;6.640;2023-04-06T08:32:11;14.02;;;9.55;;
51949;SDS011;37974;53.218;6.640;2023-04-06T08:34:37;31.38;;;9.68;;
51949;SDS011;37974;53.218;6.640;2023-04-06T08:37:02;13.32;;;8.65;;
51949;SDS011;37974;53.218;6.640;2023-04-06T08:39:28;17.58;;;9.75;;
51949;SDS011;37974;53.218;6.640;2023-04-06T08:41:55;26.60;;;9.18;;
51949;SDS011;37974;53.218;6.640;2023-04-06T08:44:22;19.92;;;9.35;;
51949;SDS011;37974;53.218;6.640;2023-04-06T08:46:48;22.92;;;9.77;;
51949;SDS011;37974;53.218;6.640;2023-04-06T08:49:15;16.80;;;9.73;;
51949;SDS011;37974;53.218;6.640;2023-04-06T08:51:41;14.95;;;8.82;;
51949;SDS011;37974;53.218;6.640;2023-04-06T08:54:07;14.27;;;9.52;;
51949;SDS011;37974;53.218;6.640;2023-04-06T08:56:33;17.88;;;9.18;;
51949;SDS011;37974;53.218;6.640;2023-04-06T08:59:03;15.55;;;9.82;;
51949;SDS011;37974;53.218;6.640;2023-04-06T09:01:31;17.05;;;10.20;;
51949;SDS011;37974;53.218;6.640;2023-04-06T09:04:01;17.13;;;10.15;;
51949;SDS011;37974;53.218;6.640;2023-04-06T09:06:30;13.93;;;8.38;;
51949;SDS011;37974;53.218;6.640;2023-04-06T09:08:56;15.80;;;9.90;;
51949;SDS011;37974;53.218;6.640;2023-04-06T09:11:23;15.82;;;9.27;;
51949;SDS011;37974;53.218;6.640;2023-04-06T09:13:50;19.83;;;9.15;;
51949;SDS011;37974;53.218;6.640;2023-04-06T09:16:18;15.63;;;8.82;;
51949;SDS011;37974;53.218;6.640;2023-04-06T09:18:44;18.67;;;9.73;;
51949;SDS011;37974;53.218;6.640;2023-04-06T09:21:10;17.45;;;9.48;;
51949;SDS011;37974;53.218;6.640;2023-04-06T09:23:37;16.17;;;9.18;;
51949;SDS011;37974;53.218;6.640;2023-04-06T09:26:10;12.25;;;8.75;;
51949;SDS011;37974;53.218;6.640;2023-04-06T09:31:12;14.07;;;9.10;;
51949;SDS011;37974;53.218;6.640;2023-04-06T09:33:40;14.75;;;8.55;;
51949;SDS011;37974;53.218;6.640;2023-04-06T09:36:07;14.15;;;8.90;;
51949;SDS011;37974;53.218;6.640;2023-04-06T09:38:37;12.68;;;8.60;;
51949;SDS011;37974;53.218;6.640;2023-04-06T09:41:04;15.00;;;8.35;;
51949;SDS011;37974;53.218;6.640;2023-04-06T09:43:30;12.10;;;8.90;;
51949;SDS011;37974;53.218;6.640;2023-04-06T09:45:56;15.13;;;8.98;;
51949;SDS011;37974;53.218;6.640;2023-04-06T09:48:23;16.48;;;8.90;;
51949;SDS011;37974;53.218;6.640;2023-04-06T09:50:50;15.50;;;9.05;;
51949;SDS011;37974;53.218;6.640;2023-04-06T09:53:23;13.32;;;8.45;;
51949;SDS011;37974;53.218;6.640;2023-04-06T09:55:51;15.32;;;8.93;;
51949;SDS011;37974;53.218;6.640;2023-04-06T09:58:22;21.27;;;9.18;;
51949;SDS011;37974;53.218;6.640;2023-04-06T10:01:07;13.45;;;8.90;;
51949;SDS011;37974;53.218;6.640;2023-04-06T10:06:04;13.25;;;9.20;;
51949;SDS011;37974;53.218;6.640;2023-04-06T10:08:35;14.73;;;9.23;;
51949;SDS011;37974;53.218;6.640;2023-04-06T10:11:05;15.80;;;10.48;;
51949;SDS011;37974;53.218;6.640;2023-04-06T10:13:32;16.13;;;10.50;;
51949;SDS011;37974;53.218;6.640;2023-04-06T10:15:59;31.15;;;11.07;;
51949;SDS011;37974;53.218;6.640;2023-04-06T10:18:26;21.42;;;10.90;;
51949;SDS011;37974;53.218;6.640;2023-04-06T10:20:53;15.35;;;10.20;;
51949;SDS011;37974;53.218;6.640;2023-04-06T10:23:24;17.42;;;10.07;;
51949;SDS011;37974;53.218;6.640;2023-04-06T10:25:59;16.50;;;9.75;;
51949;SDS011;37974;53.218;6.640;2023-04-06T10:28:29;16.42;;;10.60;;
51949;SDS011;37974;53.218;6.640;2023-04-06T10:30:57;15.68;;;10.02;;
51949;SDS011;37974;53.218;6.640;2023-04-06T10:33:24;16.15;;;11.10;;
51949;SDS011;37974;53.218;6.640;2023-04-06T10:35:51;29.63;;;11.18;;
51949;SDS011;37974;53.218;6.640;2023-04-06T10:38:16;18.98;;;10.63;;
51949;SDS011;37974;53.218;6.640;2023-04-06T10:40:46;17.17;;;10.30;;
51949;SDS011;37974;53.218;6.640;2023-04-06T10:43:18;18.65;;;11.65;;
51949;SDS011;37974;53.218;6.640;2023-04-06T10:45:52;16.67;;;10.93;;
51949;SDS011;37974;53.218;6.640;2023-04-06T10:48:20;21.35;;;11.25;;
51949;SDS011;37974;53.218;6.640;2023-04-06T10:50:47;21.58;;;12.52;;
51949;SDS011;37974;53.218;6.640;2023-04-06T10:53:21;24.67;;;12.30;;
51949;SDS011;37974;53.218;6.640;2023-04-06T10:58:14;18.08;;;12.05;;
51949;SDS011;37974;53.218;6.640;2023-04-06T11:00:44;21.27;;;12.77;;
51949;SDS011;37974;53.218;6.640;2023-04-06T11:03:11;56.28;;;14.40;;
51949;SDS011;37974;53.218;6.640;2023-04-06T11:05:36;23.08;;;13.40;;
51949;SDS011;37974;53.218;6.640;2023-04-06T11:08:02;19.65;;;12.55;;
51949;SDS011;37974;53.218;6.640;2023-04-06T11:10:28;22.17;;;14.82;;
51949;SDS011;37974;53.218;6.640;2023-04-06T11:12:55;22.25;;;13.52;;
51949;SDS011;37974;53.218;6.640;2023-04-06T11:15:21;22.42;;;13.52;;
51949;SDS011;37974;53.218;6.640;2023-04-06T11:17:47;20.42;;;14.27;;
51949;SDS011;37974;53.218;6.640;2023-04-06T11:20:14;19.42;;;13.73;;
51949;SDS011;37974;53.218;6.640;2023-04-06T11:22:48;20.27;;;13.50;;
51949;SDS011;37974;53.218;6.640;2023-04-06T11:25:15;22.95;;;14.95;;
51949;SDS011;37974;53.218;6.640;2023-04-06T11:27:42;23.42;;;16.60;;
51949;SDS011;37974;53.218;6.640;2023-04-06T11:30:08;30.35;;;17.33;;
51949;SDS011;37974;53.218;6.640;2023-04-06T11:32:39;28.08;;;17.45;;
51949;SDS011;37974;53.218;6.640;2023-04-06T11:35:07;27.38;;;19.60;;
51949;SDS011;37974;53.218;6.640;2023-04-06T11:37:44;33.33;;;20.02;;
51949;SDS011;37974;53.218;6.640;2023-04-06T11:40:10;27.08;;;19.40;;
51949;SDS011;37974;53.218;6.640;2023-04-06T11:42:35;30.75;;;20.10;;
51949;SDS011;37974;53.218;6.640;2023-04-06T11:45:01;27.02;;;19.35;;
51949;SDS011;37974;53.218;6.640;2023-04-06T11:47:28;24.88;;;18.08;;
51949;SDS011;37974;53.218;6.640;2023-04-06T11:50:05;31.30;;;19.80;;
51949;SDS011;37974;53.218;6.640;2023-04-06T11:52:32;31.70;;;19.42;;
51949;SDS011;37974;53.218;6.640;2023-04-06T11:54:58;23.40;;;17.77;;
51949;SDS011;37974;53.218;6.640;2023-04-06T11:57:34;31.02;;;19.40;;
51949;SDS011;37974;53.218;6.640;2023-04-06T12:00:00;27.05;;;18.73;;
51949;SDS011;37974;53.218;6.640;2023-04-06T12:02:26;31.98;;;19.52;;
51949;SDS011;37974;53.218;6.640;2023-04-06T12:04:52;27.15;;;19.08;;
51949;SDS011;37974;53.218;6.640;2023-04-06T12:07:17;26.88;;;19.65;;
51949;SDS011;37974;53.218;6.640;2023-04-06T12:09:43;28.08;;;18.48;;
51949;SDS011;37974;53.218;6.640;2023-04-06T12:12:09;25.98;;;18.42;;
51949;SDS011;37974;53.218;6.640;2023-04-06T12:14:35;29.50;;;18.30;;
51949;SDS011;37974;53.218;6.640;2023-04-06T12:17:00;25.73;;;18.40;;
51949;SDS011;37974;53.218;6.640;2023-04-06T12:19:26;28.30;;;19.25;;
51949;SDS011;37974;53.218;6.640;2023-04-06T12:21:52;26.95;;;17.92;;
51949;SDS011;37974;53.218;6.640;2023-04-06T12:24:19;27.23;;;19.20;;
51949;SDS011;37974;53.218;6.640;2023-04-06T12:26:45;32.55;;;20.42;;
51949;SDS011;37974;53.218;6.640;2023-04-06T12:29:15;28.65;;;20.02;;
51949;SDS011;37974;53.218;6.640;2023-04-06T12:31:41;29.50;;;20.52;;
51949;SDS011;37974;53.218;6.640;2023-04-06T12:34:08;26.42;;;19.10;;
51949;SDS011;37974;53.218;6.640;2023-04-06T12:36:33;32.15;;;20.92;;
51949;SDS011;37974;53.218;6.640;2023-04-06T12:39:00;29.08;;;20.20;;
51949;SDS011;37974;53.218;6.640;2023-04-06T12:41:27;26.45;;;18.88;;
51949;SDS011;37974;53.218;6.640;2023-04-06T12:43:53;28.65;;;19.83;;
51949;SDS011;37974;53.218;6.640;2023-04-06T12:46:18;28.30;;;18.90;;
51949;SDS011;37974;53.218;6.640;2023-04-06T12:48:45;33.60;;;20.10;;
51949;SDS011;37974;53.218;6.640;2023-04-06T12:51:11;27.20;;;19.40;;
51949;SDS011;37974;53.218;6.640;2023-04-06T12:53:37;29.17;;;20.00;;
51949;SDS011;37974;53.218;6.640;2023-04-06T12:56:09;26.83;;;19.70;;
51949;SDS011;37974;53.218;6.640;2023-04-06T12:58:38;27.92;;;19.65;;
51949;SDS011;37974;53.218;6.640;2023-04-06T13:01:06;29.25;;;18.38;;
51949;SDS011;37974;53.218;6.640;2023-04-06T13:03:32;24.95;;;18.50;;
51949;SDS011;37974;53.218;6.640;2023-04-06T13:05:59;28.25;;;19.50;;
51949;SDS011;37974;53.218;6.640;2023-04-06T13:08:26;30.45;;;19.50;;
51949;SDS011;37974;53.218;6.640;2023-04-06T13:10:52;29.88;;;20.17;;
51949;SDS011;37974;53.218;6.640;2023-04-06T13:13:21;27.77;;;19.95;;
51949;SDS011;37974;53.218;6.640;2023-04-06T13:15:49;30.48;;;19.92;;
51949;SDS011;37974;53.218;6.640;2023-04-06T13:18:16;33.17;;;19.48;;
51949;SDS011;37974;53.218;6.640;2023-04-06T13:20:41;30.17;;;20.63;;
51949;SDS011;37974;53.218;6.640;2023-04-06T13:23:07;30.75;;;19.02;;
51949;SDS011;37974;53.218;6.640;2023-04-06T13:25:33;28.27;;;20.48;;
51949;SDS011;37974;53.218;6.640;2023-04-06T13:28:00;28.73;;;20.00;;
51949;SDS011;37974;53.218;6.640;2023-04-06T13:30:25;31.83;;;20.45;;
51949;SDS011;37974;53.218;6.640;2023-04-06T13:32:51;28.70;;;20.52;;
51949;SDS011;37974;53.218;6.640;2023-04-06T13:35:17;31.00;;;21.23;;
51949;SDS011;37974;53.218;6.640;2023-04-06T13:37:43;28.98;;;20.05;;
51949;SDS011;37974;53.218;6.640;2023-04-06T13:40:09;31.25;;;20.25;;
51949;SDS011;37974;53.218;6.640;2023-04-06T13:42:35;27.27;;;20.23;;
51949;SDS011;37974;53.218;6.640;2023-04-06T13:45:03;27.70;;;19.95;;
51949;SDS011;37974;53.218;6.640;2023-04-06T13:47:29;27.08;;;18.67;;
51949;SDS011;37974;53.218;6.640;2023-04-06T13:49:55;26.75;;;19.73;;
51949;SDS011;37974;53.218;6.640;2023-04-06T13:52:21;27.95;;;19.50;;
51949;SDS011;37974;53.218;6.640;2023-04-06T13:54:48;30.02;;;19.80;;
51949;SDS011;37974;53.218;6.640;2023-04-06T13:57:15;30.23;;;19.63;;
51949;SDS011;37974;53.218;6.640;2023-04-06T13:59:41;30.63;;;19.52;;
51949;SDS011;37974;53.218;6.640;2023-04-06T14:02:08;30.38;;;20.50;;
51949;SDS011;37974;53.218;6.640;2023-04-06T14:04:35;31.65;;;19.95;;
51949;SDS011;37974;53.218;6.640;2023-04-06T14:07:01;30.08;;;20.35;;
51949;SDS011;37974;53.218;6.640;2023-04-06T14:09:28;28.65;;;20.30;;
51949;SDS011;37974;53.218;6.640;2023-04-06T14:11:54;26.73;;;20.17;;
51949;SDS011;37974;53.218;6.640;2023-04-06T14:14:20;25.67;;;19.83;;
51949;SDS011;37974;53.218;6.640;2023-04-06T14:16:47;31.80;;;20.98;;
51949;SDS011;37974;53.218;6.640;2023-04-06T14:19:49;26.45;;;19.05;;
51949;SDS011;37974;53.218;6.640;2023-04-06T14:22:15;25.30;;;18.23;;
51949;SDS011;37974;53.218;6.640;2023-04-06T14:24:42;23.75;;;17.50;;
51949;SDS011;37974;53.218;6.640;2023-04-06T14:27:08;23.17;;;17.10;;